Swayzee, Indiana
Current Conditions -  °F | °C
As of 8:15 AM on Sunday 21 Dec 2014 (Local Time) from KMZZ Reporting Station
Haze Haze  
Wind Chill: 27°   Ceiling: 5000
Heat Index: 27°   Visibility: 4mi
Dew Point: 25°   Wind: 3mph
Humidity: 92%   Direction: 170°S
Pressure: 30.3"   Gusts: NA
Location:  40.51°N, 85.83°W
Report Text: KMZZ 211315Z AUTO 17003KT 4SM BR OVC050 M03/M04 A3030 RMK AO2 T10271039
Loading
Personal Weather Stations






























Interactive Weather Map New forecast layout! Learn more

10-Day Weather Forecast

Advertisements
Track Severe Weather on mobile